Time;durP1;ratioP1;P1;durP2;ratioP2;P2;SDS_P1;SDS_P2;PMS_P1;PMS_P2;Temp;Humidity;BMP_temperature;BMP_pressure;BME280_temperature;BME280_humidity;BME280_pressure;Samples;Min_cycle;Max_cycle;Signal;HPM_P1;HPM_P2
2024/03/23 00:01:58;;;;;;;33.83;9.55;;;7.70;99.90;;;;;;5074777;28;20048;-69
2024/03/23 00:04:25;;;;;;;30.88;8.88;;;7.60;99.90;;;;;;5076310;28;20502;-67
2024/03/23 00:06:51;;;;;;;28.27;9.02;;;7.60;99.90;;;;;;5076408;28;20047;-67
2024/03/23 00:09:18;;;;;;;35.33;9.55;;;7.60;99.90;;;;;;5076432;28;20021;-67
2024/03/23 00:11:44;;;;;;;30.35;8.85;;;7.60;99.90;;;;;;5076366;28;20470;-67
2024/03/23 00:14:11;;;;;;;33.70;10.20;;;7.50;99.90;;;;;;5076347;28;20120;-67
2024/03/23 00:16:37;;;;;;;33.65;10.48;;;7.50;99.90;;;;;;5076017;28;20033;-67
2024/03/23 00:19:04;;;;;;;34.85;9.73;;;7.50;99.90;;;;;;5076245;28;20429;-66
2024/03/23 00:21:31;;;;;;;34.70;9.45;;;7.50;99.90;;;;;;5075666;28;20052;-66
2024/03/23 00:23:57;;;;;;;27.30;9.10;;;7.40;99.90;;;;;;5076101;28;20078;-67
2024/03/23 00:26:24;;;;;;;24.33;7.18;;;7.30;99.90;;;;;;5076106;28;20020;-66
2024/03/23 00:28:50;;;;;;;26.27;7.22;;;7.20;99.90;;;;;;5076176;28;20020;-67
2024/03/23 00:31:17;;;;;;;30.52;7.07;;;7.10;99.90;;;;;;5076013;28;20091;-67
2024/03/23 00:33:43;;;;;;;20.65;5.82;;;7.00;99.90;;;;;;5075963;28;20020;-67
2024/03/23 00:36:10;;;;;;;17.40;6.15;;;7.00;99.90;;;;;;5075983;28;20024;-67
2024/03/23 00:38:36;;;;;;;26.60;5.72;;;6.90;99.90;;;;;;5074681;28;20028;-67
2024/03/23 00:41:03;;;;;;;18.50;6.50;;;6.90;99.90;;;;;;5075588;28;20094;-67
2024/03/23 00:43:30;;;;;;;22.50;5.53;;;6.80;99.90;;;;;;5075424;28;20032;-67
2024/03/23 00:45:56;;;;;;;19.40;5.22;;;6.80;99.90;;;;;;5075483;28;20428;-67
2024/03/23 00:48:23;;;;;;;21.48;5.28;;;6.80;99.90;;;;;;5075568;28;20048;-67
2024/03/23 00:50:49;;;;;;;13.77;5.18;;;6.80;99.90;;;;;;5075757;28;20021;-67
2024/03/23 00:53:16;;;;;;;25.50;5.88;;;6.80;99.90;;;;;;5075565;28;20025;-67
2024/03/23 00:55:42;;;;;;;27.73;6.03;;;6.80;99.90;;;;;;5075555;28;20036;-67
2024/03/23 00:58:08;;;;;;;22.95;5.28;;;6.80;99.90;;;;;;5075364;28;20028;-67
2024/03/23 01:00:33;;;;;;;23.38;6.72;;;6.80;99.90;;;;;;5075520;28;20440;-67
2024/03/23 01:02:59;;;;;;;17.38;5.15;;;6.80;99.90;;;;;;5075348;28;20028;-67
2024/03/23 01:05:25;;;;;;;20.55;4.70;;;6.80;99.90;;;;;;5075243;28;20056;-67
2024/03/23 01:07:50;;;;;;;21.83;5.55;;;6.80;99.90;;;;;;5075361;28;20029;-67
2024/03/23 01:10:16;;;;;;;23.75;4.90;;;6.80;99.90;;;;;;5075461;28;20493;-68
2024/03/23 01:12:41;;;;;;;17.90;5.10;;;6.80;99.90;;;;;;5075549;28;20111;-67
2024/03/23 01:15:07;;;;;;;17.73;5.30;;;6.70;99.90;;;;;;5074907;28;20025;-67
2024/03/23 01:17:32;;;;;;;16.48;4.93;;;6.70;99.90;;;;;;5075223;28;20111;-67
2024/03/23 01:19:58;;;;;;;21.00;5.00;;;6.70;99.90;;;;;;5075166;28;20024;-67
2024/03/23 01:22:23;;;;;;;19.05;5.00;;;6.70;99.90;;;;;;5075173;28;20036;-67
2024/03/23 01:24:49;;;;;;;19.75;4.35;;;6.60;99.90;;;;;;5074878;28;20074;-67
2024/03/23 01:27:15;;;;;;;16.80;4.25;;;6.60;99.90;;;;;;5075094;28;20136;-67
2024/03/23 01:29:40;;;;;;;15.45;4.78;;;6.60;99.90;;;;;;5074425;28;20020;-67
2024/03/23 01:32:06;;;;;;;19.27;5.22;;;6.60;99.90;;;;;;5074811;28;20035;-67
2024/03/23 01:34:32;;;;;;;20.77;5.07;;;6.60;99.90;;;;;;5074893;28;20032;-66
2024/03/23 01:36:58;;;;;;;14.80;4.35;;;6.60;99.90;;;;;;5074417;28;20036;-67
2024/03/23 01:39:24;;;;;;;17.45;4.95;;;6.50;99.90;;;;;;5074355;28;20115;-67
2024/03/23 01:41:49;;;;;;;20.90;4.70;;;6.60;99.90;;;;;;5074516;28;20178;-67
2024/03/23 01:44:16;;;;;;;16.05;3.80;;;6.60;99.90;;;;;;5074495;28;20050;-67
2024/03/23 01:46:42;;;;;;;18.38;4.50;;;6.60;99.90;;;;;;5074658;28;20025;-66
2024/03/23 01:49:08;;;;;;;20.05;4.93;;;6.80;99.90;;;;;;5074345;28;20028;-66
2024/03/23 01:51:34;;;;;;;22.23;4.75;;;6.70;99.90;;;;;;5074155;28;20067;-67
2024/03/23 01:54:03;;;;;;;14.52;4.28;;;6.60;99.90;;;;;;5074478;28;20447;-66
2024/03/23 01:56:33;;;;;;;23.35;4.63;;;6.60;99.90;;;;;;5074090;28;20029;-67
2024/03/23 01:58:59;;;;;;;16.13;3.85;;;6.60;99.90;;;;;;5074246;28;20497;-67
2024/03/23 02:01:25;;;;;;;9.75;4.15;;;6.60;99.90;;;;;;5074410;28;20024;-66
2024/03/23 02:03:50;;;;;;;14.18;3.70;;;6.50;99.90;;;;;;5074073;28;20017;-67
2024/03/23 02:06:16;;;;;;;13.27;3.92;;;6.50;99.90;;;;;;5073913;28;20020;-67
2024/03/23 02:08:42;;;;;;;17.38;4.47;;;6.50;99.90;;;;;;5074045;28;20474;-67
2024/03/23 02:11:07;;;;;;;17.80;3.83;;;6.50;99.90;;;;;;5073854;28;20060;-67
2024/03/23 02:13:33;;;;;;;17.10;4.55;;;6.50;99.90;;;;;;5074124;28;20058;-67
2024/03/23 02:15:58;;;;;;;11.57;3.67;;;6.40;99.90;;;;;;5074064;28;20043;-67
2024/03/23 02:18:24;;;;;;;13.77;3.95;;;6.40;99.90;;;;;;5074039;28;20078;-67
2024/03/23 02:20:49;;;;;;;14.23;3.78;;;6.40;99.90;;;;;;5073763;28;20086;-67
2024/03/23 02:23:16;;;;;;;9.18;3.20;;;6.40;99.90;;;;;;5073834;28;20089;-67
2024/03/23 02:25:42;;;;;;;14.80;3.47;;;6.40;99.90;;;;;;5073625;28;20033;-66
2024/03/23 02:28:08;;;;;;;10.63;3.10;;;6.40;99.90;;;;;;5073371;28;20025;-67
2024/03/23 02:30:34;;;;;;;12.93;4.25;;;6.30;99.90;;;;;;5073676;28;20027;-67
2024/03/23 02:32:59;;;;;;;13.68;3.72;;;6.30;99.90;;;;;;5073622;28;20020;-67
2024/03/23 02:35:25;;;;;;;12.55;3.47;;;6.30;99.90;;;;;;5073756;28;20032;-67
2024/03/23 02:37:51;;;;;;;11.35;3.47;;;6.30;99.90;;;;;;5073274;28;20039;-66
2024/03/23 02:40:17;;;;;;;14.65;3.88;;;6.30;99.90;;;;;;5073279;28;20486;-66
2024/03/23 02:42:43;;;;;;;16.98;4.00;;;6.30;99.90;;;;;;5073491;28;20036;-66
2024/03/23 02:45:08;;;;;;;13.07;3.90;;;6.30;99.90;;;;;;5073193;28;20094;-67
2024/03/23 02:47:34;;;;;;;12.20;3.63;;;6.30;99.90;;;;;;5073588;28;20039;-67
2024/03/23 02:50:00;;;;;;;22.77;4.10;;;6.30;99.90;;;;;;5073616;28;20058;-67
2024/03/23 02:52:25;;;;;;;11.82;4.00;;;6.30;99.90;;;;;;5073460;28;20392;-67
2024/03/23 02:54:51;;;;;;;16.48;4.03;;;6.30;99.90;;;;;;5073500;28;20028;-67
2024/03/23 02:57:17;;;;;;;9.90;3.92;;;6.30;99.90;;;;;;5073547;28;20062;-66
2024/03/23 02:59:42;;;;;;;10.25;3.40;;;6.30;99.90;;;;;;5073431;28;20035;-67
2024/03/23 03:02:08;;;;;;;12.82;3.95;;;6.20;99.90;;;;;;5072723;28;20075;-67
2024/03/23 03:04:33;;;;;;;14.40;5.07;;;6.20;99.90;;;;;;5073115;28;20066;-67
2024/03/23 03:06:59;;;;;;;18.67;4.63;;;6.20;99.90;;;;;;5073402;28;20090;-67
2024/03/23 03:09:25;;;;;;;14.50;5.38;;;6.20;99.90;;;;;;5073376;28;20421;-67
2024/03/23 03:11:50;;;;;;;17.05;4.57;;;6.30;99.90;;;;;;5073256;28;20368;-67
2024/03/23 03:14:16;;;;;;;18.63;6.28;;;6.30;99.90;;;;;;5073441;28;20028;-66
2024/03/23 03:16:41;;;;;;;15.93;5.80;;;6.30;99.90;;;;;;5073180;28;20036;-66
2024/03/23 03:19:07;;;;;;;15.32;5.38;;;6.30;99.90;;;;;;5073040;28;20074;-66
2024/03/23 03:21:32;;;;;;;19.58;6.32;;;6.30;99.90;;;;;;5073233;28;20033;-66
2024/03/23 03:23:58;;;;;;;27.42;6.35;;;6.30;99.90;;;;;;5073226;28;20021;-67
2024/03/23 03:26:24;;;;;;;11.48;5.03;;;6.20;99.90;;;;;;5072740;28;20486;-67
2024/03/23 03:28:50;;;;;;;20.52;5.07;;;6.20;99.90;;;;;;5073204;28;20025;-68
2024/03/23 03:31:16;;;;;;;21.48;4.20;;;6.10;99.90;;;;;;5073212;28;20115;-66
2024/03/23 03:33:42;;;;;;;14.98;3.97;;;6.10;99.90;;;;;;5072638;28;20063;-66
2024/03/23 03:36:08;;;;;;;18.55;4.65;;;6.00;99.90;;;;;;5072865;28;20032;-66
2024/03/23 03:38:35;;;;;;;13.02;3.20;;;5.90;99.90;;;;;;5072657;28;20028;-66
2024/03/23 03:41:01;;;;;;;11.50;3.83;;;5.90;99.90;;;;;;5072797;28;20049;-67
2024/03/23 03:43:27;;;;;;;13.20;3.78;;;5.90;99.90;;;;;;5072961;28;20040;-67
2024/03/23 03:45:53;;;;;;;18.65;4.07;;;5.90;99.90;;;;;;5072683;28;20390;-67
2024/03/23 03:48:19;;;;;;;15.23;3.25;;;6.00;99.90;;;;;;5072826;28;20031;-66
2024/03/23 03:50:44;;;;;;;15.98;3.28;;;5.90;99.90;;;;;;5072835;28;20398;-67
2024/03/23 03:53:10;;;;;;;11.63;2.88;;;5.90;99.90;;;;;;5072911;28;20028;-66
2024/03/23 03:55:35;;;;;;;8.25;2.80;;;6.00;99.90;;;;;;5072469;28;20028;-67
2024/03/23 03:58:01;;;;;;;7.60;2.70;;;6.00;99.90;;;;;;5072892;28;20040;-67
2024/03/23 04:00:26;;;;;;;14.90;3.15;;;6.00;99.90;;;;;;5072710;28;20082;-66
2024/03/23 04:02:52;;;;;;;9.80;3.58;;;5.80;99.90;;;;;;5072835;28;20029;-66
2024/03/23 04:05:19;;;;;;;13.95;2.60;;;5.90;99.90;;;;;;5072683;28;20072;-66
2024/03/23 04:07:44;;;;;;;11.15;2.28;;;5.90;99.90;;;;;;5073036;28;20374;-66
2024/03/23 04:10:10;;;;;;;20.13;4.00;;;5.80;99.90;;;;;;5072603;28;20025;-66
2024/03/23 04:12:35;;;;;;;9.45;2.38;;;5.80;99.90;;;;;;5073015;28;20036;-66
2024/03/23 04:15:03;;;;;;;9.13;2.88;;;5.80;99.90;;;;;;5076382;28;20447;-66
2024/03/23 04:17:32;;;;;;;12.00;2.90;;;5.80;99.90;;;;;;5076318;28;20048;-67
2024/03/23 04:19:58;;;;;;;10.98;3.13;;;5.90;99.90;;;;;;5076329;28;20024;-67
2024/03/23 04:22:26;;;;;;;12.52;3.42;;;5.90;99.90;;;;;;5076283;28;20054;-67
2024/03/23 04:24:53;;;;;;;13.07;3.45;;;5.90;99.90;;;;;;5076019;28;20028;-67
2024/03/23 04:27:19;;;;;;;10.65;2.90;;;5.90;99.90;;;;;;5076106;28;20557;-67
2024/03/23 04:29:53;;;;;;;13.07;3.17;;;5.90;99.90;;;;;;5075700;28;20024;-67
2024/03/23 04:32:19;;;;;;;12.18;3.55;;;5.90;99.90;;;;;;5076040;28;20049;-66
2024/03/23 04:34:45;;;;;;;17.55;3.60;;;5.80;99.90;;;;;;5075710;28;20450;-66
2024/03/23 04:37:11;;;;;;;15.95;4.03;;;5.80;99.90;;;;;;5076194;28;20024;-66
2024/03/23 04:39:37;;;;;;;12.57;4.15;;;5.80;99.90;;;;;;5075953;28;20033;-66
2024/03/23 04:42:03;;;;;;;12.65;4.47;;;5.80;99.90;;;;;;5075496;28;20155;-67
2024/03/23 04:44:29;;;;;;;18.02;4.13;;;5.90;99.90;;;;;;5075855;28;20394;-66
2024/03/23 04:46:55;;;;;;;13.05;3.80;;;5.90;99.90;;;;;;5075772;28;20028;-66
2024/03/23 04:49:20;;;;;;;15.45;4.07;;;5.90;99.90;;;;;;5075820;28;20060;-67
2024/03/23 04:51:46;;;;;;;16.00;5.20;;;5.90;99.90;;;;;;5075887;28;20028;-66
2024/03/23 04:54:12;;;;;;;19.17;4.90;;;5.90;99.90;;;;;;5075642;28;20216;-66
2024/03/23 04:56:38;;;;;;;20.08;5.22;;;5.90;99.90;;;;;;5075108;28;20024;-67
2024/03/23 04:59:04;;;;;;;14.13;4.40;;;5.90;99.90;;;;;;5075126;28;20554;-67
2024/03/23 05:01:31;;;;;;;18.67;4.82;;;6.00;99.90;;;;;;5075096;28;20049;-66
2024/03/23 05:03:57;;;;;;;26.17;7.25;;;6.00;99.90;;;;;;5075271;28;20023;-66
2024/03/23 05:06:23;;;;;;;20.63;4.95;;;6.00;99.90;;;;;;5075170;28;20048;-67
2024/03/23 05:08:49;;;;;;;22.80;5.47;;;6.00;99.90;;;;;;5075530;28;20025;-67
2024/03/23 05:11:15;;;;;;;17.52;5.43;;;6.00;99.90;;;;;;5074907;28;20024;-66
2024/03/23 05:13:42;;;;;;;18.83;5.93;;;5.90;99.90;;;;;;5075316;28;20027;-67
2024/03/23 05:16:08;;;;;;;22.65;6.05;;;5.90;99.90;;;;;;5075249;28;20021;-67
2024/03/23 05:18:34;;;;;;;18.15;5.10;;;6.00;99.90;;;;;;5074914;28;20032;-66
2024/03/23 05:21:00;;;;;;;18.35;5.40;;;6.00;99.90;;;;;;5075200;28;20090;-67
2024/03/23 05:23:27;;;;;;;28.35;6.38;;;5.90;99.90;;;;;;5075135;28;20406;-67
2024/03/23 05:25:53;;;;;;;20.27;6.10;;;5.90;99.90;;;;;;5074238;28;20486;-67
2024/03/23 05:28:18;;;;;;;22.10;5.80;;;5.90;99.90;;;;;;5075080;28;20025;-66
2024/03/23 05:30:49;;;;;;;21.45;6.32;;;6.00;99.90;;;;;;5074764;28;20029;-67
2024/03/23 05:33:15;;;;;;;17.90;5.82;;;5.90;99.90;;;;;;5074880;28;20025;-66
2024/03/23 05:35:40;;;;;;;21.70;6.03;;;5.90;99.90;;;;;;5074849;28;20123;-67
2024/03/23 05:38:06;;;;;;;33.03;11.82;;;6.00;99.90;;;;;;5074375;28;20017;-67
2024/03/23 05:40:31;;;;;;;40.83;14.13;;;5.90;99.90;;;;;;5074589;28;20590;-67
2024/03/23 05:42:57;;;;;;;26.17;9.52;;;6.00;99.90;;;;;;5074699;28;20032;-66
2024/03/23 05:45:23;;;;;;;24.63;8.40;;;6.00;99.90;;;;;;5074469;28;20044;-67
2024/03/23 05:47:48;;;;;;;33.25;11.57;;;5.90;99.90;;;;;;5074555;28;20024;-67
2024/03/23 05:50:14;;;;;;;36.17;15.57;;;5.90;99.90;;;;;;5074380;28;20485;-67
2024/03/23 05:52:40;;;;;;;24.77;11.18;;;5.90;99.90;;;;;;5074242;28;20474;-67
2024/03/23 05:55:06;;;;;;;28.67;10.10;;;5.90;99.90;;;;;;5074237;28;20029;-67
2024/03/23 05:57:32;;;;;;;33.45;15.95;;;5.90;99.90;;;;;;5074238;28;20089;-67
2024/03/23 05:59:57;;;;;;;33.40;15.48;;;5.90;99.90;;;;;;5074276;28;20486;-67
2024/03/23 06:02:24;;;;;;;43.17;15.50;;;5.90;99.90;;;;;;5073840;28;20486;-67
2024/03/23 06:04:49;;;;;;;29.75;13.52;;;5.90;99.90;;;;;;5074220;28;20029;-66
2024/03/23 06:07:15;;;;;;;35.40;14.48;;;6.00;99.90;;;;;;5073996;28;20039;-67
2024/03/23 06:09:41;;;;;;;27.95;13.15;;;6.00;99.90;;;;;;5074112;28;20032;-67
2024/03/23 06:12:07;;;;;;;37.83;15.90;;;6.00;99.90;;;;;;5074094;28;20020;-67
2024/03/23 06:14:33;;;;;;;29.58;11.50;;;5.90;99.90;;;;;;5074010;28;20410;-66
2024/03/23 06:16:59;;;;;;;42.70;18.20;;;6.00;99.90;;;;;;5073873;28;20024;-67
2024/03/23 06:19:27;;;;;;;55.35;25.75;;;6.00;99.90;;;;;;5073953;28;20054;-67
2024/03/23 06:21:54;;;;;;;36.90;15.07;;;6.00;99.90;;;;;;5073598;28;20486;-67
2024/03/23 06:24:22;;;;;;;48.53;20.92;;;6.00;99.90;;;;;;5073952;28;20178;-67
2024/03/23 06:26:48;;;;;;;47.92;23.05;;;6.10;99.90;;;;;;5073724;28;20544;-66
2024/03/23 06:29:13;;;;;;;43.28;18.77;;;6.10;99.90;;;;;;5073700;28;20025;-66
2024/03/23 06:31:39;;;;;;;39.35;19.42;;;6.10;99.90;;;;;;5073685;28;20020;-67
2024/03/23 06:34:04;;;;;;;47.15;19.92;;;6.20;99.90;;;;;;5073683;28;20158;-67
2024/03/23 06:36:30;;;;;;;31.13;13.00;;;6.20;99.90;;;;;;5072557;28;20082;-66
2024/03/23 06:38:56;;;;;;;29.13;14.20;;;6.20;99.90;;;;;;5073610;28;20051;-67
2024/03/23 06:41:22;;;;;;;38.72;14.90;;;6.20;99.90;;;;;;5073214;28;20053;-66
2024/03/23 06:43:48;;;;;;;42.63;18.88;;;6.30;99.90;;;;;;5073224;28;20025;-67
2024/03/23 06:46:14;;;;;;;36.47;16.42;;;6.30;99.90;;;;;;5073197;28;20039;-66
2024/03/23 06:48:39;;;;;;;40.67;17.27;;;6.30;99.90;;;;;;5073471;28;20027;-66
2024/03/23 06:51:06;;;;;;;43.88;18.08;;;6.30;99.90;;;;;;5073366;28;20095;-66
2024/03/23 06:53:32;;;;;;;44.35;19.52;;;6.30;99.90;;;;;;5073476;28;20031;-66
2024/03/23 06:55:58;;;;;;;44.30;18.05;;;6.30;99.90;;;;;;5073324;28;20025;-67
2024/03/23 06:58:25;;;;;;;55.20;20.08;;;6.30;99.90;;;;;;5073391;28;20412;-66
2024/03/23 07:00:51;;;;;;;41.08;18.92;;;6.40;99.90;;;;;;5073401;28;20474;-67
2024/03/23 07:03:17;;;;;;;41.40;17.50;;;6.30;99.90;;;;;;5073264;28;20035;-67
2024/03/23 07:05:43;;;;;;;40.78;20.92;;;6.40;99.90;;;;;;5072807;28;20052;-67
2024/03/23 07:08:08;;;;;;;47.67;18.70;;;6.40;99.90;;;;;;5073323;28;20029;-67
2024/03/23 07:10:35;;;;;;;57.38;27.35;;;6.40;99.90;;;;;;5073256;28;20025;-66
2024/03/23 07:13:01;;;;;;;60.33;26.00;;;6.50;99.90;;;;;;5073210;28;20028;-67
2024/03/23 07:15:26;;;;;;;56.92;28.48;;;6.80;99.90;;;;;;5073246;28;20032;-66
2024/03/23 07:17:52;;;;;;;51.33;25.83;;;7.00;99.90;;;;;;5073201;28;20043;-66
2024/03/23 07:20:17;;;;;;;49.70;28.92;;;7.20;99.90;;;;;;5073226;28;20044;-66
2024/03/23 07:22:45;;;;;;;50.25;28.05;;;7.50;99.90;;;;;;5073083;28;20032;-66
2024/03/23 07:25:11;;;;;;;46.70;20.30;;;7.50;99.90;;;;;;5073023;28;20058;-66
2024/03/23 07:27:37;;;;;;;46.25;19.00;;;7.50;99.90;;;;;;5073112;28;20038;-67
2024/03/23 07:30:02;;;;;;;38.92;17.13;;;7.80;99.90;;;;;;5072972;28;20043;-67
2024/03/23 07:32:28;;;;;;;35.88;19.40;;;8.20;99.90;;;;;;5072666;28;20020;-66
2024/03/23 07:34:56;;;;;;;39.30;18.98;;;8.30;99.90;;;;;;5073000;28;20028;-67
2024/03/23 07:37:22;;;;;;;34.85;15.48;;;8.20;99.90;;;;;;5072822;28;20025;-66
2024/03/23 07:39:47;;;;;;;38.80;18.23;;;7.70;99.90;;;;;;5072895;28;20390;-67
2024/03/23 07:42:13;;;;;;;33.25;15.38;;;8.00;99.90;;;;;;5072411;28;20502;-67
2024/03/23 07:44:38;;;;;;;36.45;16.73;;;8.10;99.90;;;;;;5072757;28;20114;-67
2024/03/23 07:47:04;;;;;;;38.92;16.25;;;8.60;99.90;;;;;;5072708;28;20025;-67
2024/03/23 07:49:29;;;;;;;42.67;15.35;;;8.90;90.60;;;;;;5076265;28;20032;-67
2024/03/23 07:51:55;;;;;;;39.47;17.67;;;9.00;90.20;;;;;;5076592;28;20029;-68
2024/03/23 07:54:21;;;;;;;32.55;15.57;;;10.40;59.30;;;;;;5076759;28;20024;-67
2024/03/23 07:56:46;;;;;;;30.27;13.75;;;10.80;1.00;;;;;;5076605;28;20027;-66
2024/03/23 07:59:12;;;;;;;29.52;13.25;;;10.80;1.00;;;;;;5076595;28;20060;-67
2024/03/23 08:01:38;;;;;;;28.67;13.45;;;10.30;1.00;;;;;;5076375;28;20029;-67
2024/03/23 08:04:03;;;;;;;28.90;13.45;;;11.00;1.00;;;;;;5076414;28;20063;-67
2024/03/23 08:06:29;;;;;;;31.85;12.52;;;11.10;1.00;;;;;;5076254;28;20036;-68
2024/03/23 08:09:03;;;;;;;22.45;10.70;;;11.70;1.00;;;;;;5076399;28;20081;-67
2024/03/23 08:11:30;;;;;;;29.70;10.80;;;11.70;99.90;;;;;;5076364;28;20029;-67
2024/03/23 08:13:56;;;;;;;24.70;10.48;;;11.40;1.00;;;;;;5076350;28;20063;-67
2024/03/23 08:16:22;;;;;;;23.25;10.48;;;11.10;1.00;;;;;;5076334;28;20024;-67
2024/03/23 08:18:47;;;;;;;22.08;10.13;;;11.60;1.00;;;;;;5076012;28;20032;-67
2024/03/23 08:21:13;;;;;;;19.65;9.98;;;11.80;1.00;;;;;;5076020;28;20504;-67
2024/03/23 08:23:40;;;;;;;21.73;8.85;;;12.30;99.90;;;;;;5076173;28;20123;-67
2024/03/23 08:26:08;;;;;;;18.20;7.70;;;12.30;99.90;;;;;;5075929;28;20086;-67
2024/03/23 08:28:34;;;;;;;16.88;7.60;;;12.00;99.90;;;;;;5076131;28;20036;-67
2024/03/23 08:31:02;;;;;;;20.08;8.25;;;11.80;99.90;;;;;;5076083;28;20474;-67
2024/03/23 08:33:28;;;;;;;21.52;7.82;;;11.60;99.90;;;;;;5075851;28;20020;-68
2024/03/23 08:35:55;;;;;;;21.83;8.77;;;10.70;1.00;;;;;;5075866;28;20447;-67
2024/03/23 08:38:23;;;;;;;23.80;10.43;;;9.70;1.00;;;;;;5075440;28;20033;-67
2024/03/23 08:40:57;;;;;;;24.92;8.57;;;9.20;1.00;;;;;;5075665;28;20040;-67
2024/03/23 08:43:22;;;;;;;32.05;8.27;;;9.20;1.00;;;;;;5075679;28;20394;-66
2024/03/23 08:45:48;;;;;;;19.30;8.40;;;9.10;1.00;;;;;;5075599;28;20028;-68
2024/03/23 08:48:13;;;;;;;21.08;7.68;;;9.90;1.00;;;;;;5075807;28;20032;-68
2024/03/23 08:50:39;;;;;;;20.40;7.15;;;10.20;1.00;;;;;;5075710;28;20035;-68
2024/03/23 08:53:04;;;;;;;21.05;6.93;;;9.60;1.00;;;;;;5075437;28;20021;-68
2024/03/23 08:55:30;;;;;;;22.00;7.57;;;9.90;1.00;;;;;;5075694;28;20367;-68
2024/03/23 08:57:55;;;;;;;18.05;6.75;;;9.90;1.00;;;;;;5075443;28;20029;-68
2024/03/23 09:00:21;;;;;;;19.98;7.28;;;10.50;1.00;;;;;;5074356;28;20025;-68
2024/03/23 09:02:48;;;;;;;19.45;7.00;;;10.10;1.00;;;;;;5075491;28;20502;-68
2024/03/23 09:05:14;;;;;;;18.35;6.82;;;9.60;1.00;;;;;;5075295;28;20086;-67
2024/03/23 09:07:39;;;;;;;18.27;6.47;;;9.00;1.00;;;;;;5075213;28;20029;-67
2024/03/23 09:10:05;;;;;;;15.02;6.95;;;9.00;1.00;;;;;;5075458;28;20060;-67
2024/03/23 09:12:30;;;;;;;15.25;6.85;;;8.70;1.00;;;;;;5075146;28;20113;-67
2024/03/23 09:14:56;;;;;;;17.85;7.57;;;8.60;1.00;;;;;;5075284;28;20033;-67
2024/03/23 09:17:21;;;;;;;19.80;6.45;;;8.80;1.00;;;;;;5075415;28;20032;-67
2024/03/23 09:19:47;;;;;;;15.50;7.38;;;9.10;1.00;;;;;;5074939;28;20032;-67
2024/03/23 09:22:12;;;;;;;18.65;6.43;;;9.00;1.00;;;;;;5075186;28;20036;-67
2024/03/23 09:24:39;;;;;;;16.70;6.30;;;8.60;1.00;;;;;;5074858;28;20543;-67
2024/03/23 09:27:04;;;;;;;23.70;6.03;;;9.70;1.00;;;;;;5074963;28;20021;-68
2024/03/23 09:29:30;;;;;;;13.75;5.80;;;10.80;99.90;;;;;;5074915;28;20024;-68
2024/03/23 09:31:56;;;;;;;17.98;5.43;;;;;;;;;;5074992;28;20039;-71
2024/03/23 09:34:21;;;;;;;14.68;5.40;;;11.20;1.00;;;;;;5074918;28;20082;-68
2024/03/23 09:36:51;;;;;;;16.27;5.63;;;11.00;99.90;;;;;;5074598;28;20024;-67
2024/03/23 09:39:17;;;;;;;14.27;5.18;;;10.80;1.00;;;;;;5074543;28;20425;-68
2024/03/23 09:41:43;;;;;;;20.67;5.57;;;10.30;1.00;;;;;;5074346;28;20047;-68
2024/03/23 09:44:09;;;;;;;14.38;5.80;;;10.30;99.90;;;;;;5074667;28;20059;-67
2024/03/23 09:46:36;;;;;;;13.45;5.65;;;9.90;99.90;;;;;;5074396;28;20490;-67
2024/03/23 09:49:04;;;;;;;18.13;5.97;;;9.60;99.90;;;;;;5074509;28;20103;-68
2024/03/23 09:51:30;;;;;;;12.10;5.78;;;9.50;1.00;;;;;;5074644;28;20025;-67
2024/03/23 09:53:56;;;;;;;13.80;5.97;;;9.30;1.00;;;;;;5074390;28;20020;-68
2024/03/23 09:56:23;;;;;;;15.13;6.20;;;8.80;1.00;;;;;;5074320;28;20031;-67
2024/03/23 09:58:49;;;;;;;11.95;6.13;;;8.50;1.00;;;;;;5074208;28;20478;-68
2024/03/23 10:01:14;;;;;;;21.40;6.53;;;8.10;1.00;;;;;;5074254;28;20040;-68
2024/03/23 10:03:44;;;;;;;13.20;5.97;;;8.00;1.00;;;;;;5074275;28;20032;-68
2024/03/23 10:06:10;;;;;;;19.98;6.55;;;8.10;1.00;;;;;;5074001;28;20074;-68
2024/03/23 10:08:36;;;;;;;20.60;7.45;;;8.50;1.00;;;;;;5074218;28;20482;-68
2024/03/23 10:11:17;;;;;;;13.75;6.75;;;8.70;1.00;;;;;;5073461;28;20077;-68
2024/03/23 10:13:43;;;;;;;21.00;7.85;;;8.70;1.00;;;;;;5074156;28;20028;-68
2024/03/23 10:16:10;;;;;;;19.90;8.23;;;8.70;1.00;;;;;;5073880;28;20170;-67
2024/03/23 10:18:40;;;;;;;18.63;7.82;;;8.60;1.00;;;;;;5074080;28;20154;-67
2024/03/23 10:23:45;;;;;;;15.55;5.82;;;8.40;1.00;;;;;;5106359;27;20108;-66
2024/03/23 10:26:17;;;;;;;18.73;6.18;;;7.20;1.00;;;;;;5090842;28;20033;-67
2024/03/23 10:31:30;;;;;;;14.65;6.40;;;7.20;11.70;;;;;;5111174;27;20430;-68
2024/03/23 10:33:55;;;;;;;18.27;6.00;;;7.60;22.60;;;;;;5111165;28;20024;-68
2024/03/23 10:36:22;;;;;;;16.50;5.80;;;7.70;1.00;;;;;;5111221;28;20496;-68
2024/03/23 10:38:50;;;;;;;18.80;5.22;;;7.90;1.00;;;;;;5110664;28;20393;-68
2024/03/23 10:41:16;;;;;;;13.05;4.45;;;7.90;1.00;;;;;;5110965;28;20028;-68
2024/03/23 10:43:44;;;;;;;14.27;4.63;;;8.10;1.00;;;;;;5110896;28;20032;-71
2024/03/23 10:46:10;;;;;;;10.20;3.30;;;9.00;1.00;;;;;;5110829;28;20448;-71
2024/03/23 10:48:35;;;;;;;10.00;3.22;;;10.00;99.90;;;;;;5110870;28;20059;-71
2024/03/23 10:51:01;;;;;;;6.65;2.85;;;10.90;99.90;;;;;;5110331;28;20097;-71
2024/03/23 10:53:28;;;;;;;8.60;3.50;;;11.60;1.00;;;;;;5111039;28;20470;-73
2024/03/23 10:55:56;;;;;;;7.38;2.97;;;11.90;1.00;;;;;;5110723;28;20023;-71
2024/03/23 10:58:40;;;;;;;9.30;2.75;;;11.60;1.00;;;;;;5110682;28;20024;-71
2024/03/23 11:01:06;;;;;;;4.57;2.50;;;11.60;1.00;;;;;;5090308;28;20036;-71
2024/03/23 11:03:34;;;;;;;5.13;2.33;;;12.00;99.90;;;;;;5089827;28;20107;-71
2024/03/23 11:06:00;;;;;;;5.97;2.40;;;12.80;99.90;;;;;;5089835;28;20498;-71
2024/03/23 11:08:35;;;;;;;14.32;3.28;;;12.60;99.90;;;;;;5090159;28;20032;-71
2024/03/23 11:11:21;;;;;;;10.07;3.05;;;11.90;1.00;;;;;;5089829;28;20035;-71
2024/03/23 11:13:49;;;;;;;9.10;2.50;;;10.70;1.00;;;;;;5089942;28;20027;-72
2024/03/23 11:16:22;;;;;;;11.27;2.83;;;10.30;99.90;;;;;;5089915;28;20121;-71
2024/03/23 11:18:48;;;;;;;8.02;2.38;;;10.50;54.30;;;;;;5089981;28;20082;-71
2024/03/23 11:21:54;;;;;;;9.60;2.90;;;10.60;99.90;;;;;;5089838;28;20029;-72
2024/03/23 11:24:20;;;;;;;6.43;2.47;;;10.70;99.90;;;;;;5089622;28;20453;-71
2024/03/23 11:26:46;;;;;;;9.60;2.78;;;11.00;1.00;;;;;;5089294;28;20048;-71
2024/03/23 11:29:14;;;;;;;6.43;2.17;;;10.70;99.90;;;;;;5088902;28;20020;-70
2024/03/23 11:31:47;;;;;;;8.70;2.45;;;10.80;99.90;;;;;;5089663;28;20025;-71
2024/03/23 11:34:13;;;;;;;10.00;2.50;;;10.40;99.90;;;;;;5089573;28;20056;-73
2024/03/23 11:36:38;;;;;;;7.32;2.05;;;10.20;1.00;;;;;;5089511;28;20086;-74
2024/03/23 11:39:20;;;;;;;5.93;1.83;;;9.90;1.00;;;;;;5089497;28;20032;-73
2024/03/23 11:41:50;;;;;;;6.63;2.05;;;10.50;99.90;;;;;;5081955;28;20025;-73
2024/03/23 11:44:25;;;;;;;11.38;2.60;;;10.60;99.90;;;;;;5075508;28;20387;-74
2024/03/23 11:46:52;;;;;;;8.90;2.30;;;10.40;99.90;;;;;;5075852;28;20067;-74
2024/03/23 11:49:26;;;;;;;5.35;2.30;;;10.00;99.90;;;;;;5075658;28;20078;-73
2024/03/23 11:51:54;;;;;;;2.03;1.00;;;9.90;1.00;;;;;;5075862;28;20021;-73
2024/03/23 11:54:22;;;;;;;2.55;0.70;;;9.30;99.90;;;;;;5075664;28;20171;-73
2024/03/23 11:57:04;;;;;;;3.30;1.05;;;8.90;1.00;;;;;;5075663;28;20024;-73
2024/03/23 11:59:40;;;;;;;3.53;0.90;;;8.50;1.00;;;;;;5075468;28;20028;-73
2024/03/23 12:02:08;;;;;;;2.45;1.10;;;8.30;1.00;;;;;;5075664;28;20033;-73
2024/03/23 12:04:36;;;;;;;3.20;1.00;;;8.10;40.70;;;;;;5075222;28;20028;-73
2024/03/23 12:07:18;;;;;;;3.83;1.30;;;8.00;1.00;;;;;;5075666;28;20529;-74
2024/03/23 12:09:46;;;;;;;5.20;1.73;;;7.80;99.90;;;;;;5075389;28;20028;-74
2024/03/23 12:12:18;;;;;;;4.20;1.30;;;7.70;1.00;;;;;;5075515;28;20029;-73
2024/03/23 12:14:45;;;;;;;4.82;1.58;;;8.20;99.90;;;;;;5075423;28;20032;-73
2024/03/23 12:17:13;;;;;;;5.47;2.00;;;8.80;1.00;;;;;;5074966;28;20024;-73
2024/03/23 12:19:41;;;;;;;2.83;1.40;;;9.10;1.00;;;;;;5074815;28;20027;-74
2024/03/23 12:22:06;;;;;;;3.70;2.03;;;9.20;15.60;;;;;;5075194;28;20055;-74
2024/03/23 12:24:34;;;;;;;7.05;1.63;;;9.30;99.90;;;;;;5075217;28;20064;-73
2024/03/23 12:27:01;;;;;;;5.70;1.60;;;9.30;99.90;;;;;;5074906;28;20028;-73
2024/03/23 12:29:29;;;;;;;6.70;1.92;;;9.50;36.70;;;;;;5074901;28;20066;-73
2024/03/23 12:31:55;;;;;;;6.28;1.80;;;9.80;99.90;;;;;;5075169;28;20058;-73
2024/03/23 12:34:21;;;;;;;7.15;2.17;;;9.70;99.90;;;;;;5074574;28;20390;-73
2024/03/23 12:36:46;;;;;;;3.75;1.67;;;9.50;1.00;;;;;;5074877;28;20028;-73
2024/03/23 12:39:12;;;;;;;5.70;1.95;;;9.50;1.00;;;;;;5074956;28;20029;-73
2024/03/23 12:41:37;;;;;;;6.07;2.28;;;9.90;99.90;;;;;;5074915;28;20028;-73
2024/03/23 12:44:03;;;;;;;5.90;2.38;;;10.00;99.90;;;;;;5074936;28;20087;-73
2024/03/23 12:46:28;;;;;;;6.03;2.33;;;10.10;99.90;;;;;;5074919;28;20066;-73
2024/03/23 12:48:54;;;;;;;6.18;2.55;;;10.00;1.00;;;;;;5074812;28;20096;-73
2024/03/23 12:51:20;;;;;;;6.03;2.88;;;9.50;99.90;;;;;;5074400;28;20054;-72